createdAt,value
2022-12-22T00:00:57.518Z,21.83
2022-12-22T00:02:20.390Z,22.10
2022-12-22T00:03:40.790Z,22.04
2022-12-22T00:05:03.004Z,21.94
2022-12-22T00:06:28.062Z,21.85
2022-12-22T00:07:48.398Z,21.89
2022-12-22T00:09:08.675Z,21.71
2022-12-22T00:10:28.919Z,21.69
2022-12-22T00:11:49.128Z,22.03
2022-12-22T00:13:09.890Z,21.66
2022-12-22T00:14:31.064Z,21.86
2022-12-22T00:15:53.808Z,22.05
2022-12-22T00:17:16.546Z,22.13
2022-12-22T00:18:36.750Z,21.91
2022-12-22T00:19:56.967Z,21.96
2022-12-22T00:21:17.384Z,21.82
2022-12-22T00:22:42.055Z,21.95
2022-12-22T00:24:02.332Z,21.94
2022-12-22T00:25:22.922Z,22.00
2022-12-22T00:26:43.905Z,21.84
2022-12-22T00:28:04.570Z,22.02
2022-12-22T00:29:25.215Z,22.08
2022-12-22T00:30:45.647Z,21.88
2022-12-22T00:32:06.130Z,22.20
2022-12-22T00:33:30.366Z,22.09
2022-12-22T00:34:58.591Z,22.12
2022-12-22T00:36:18.774Z,22.06
2022-12-22T00:37:39.186Z,22.22
2022-12-22T00:38:59.623Z,22.07
2022-12-22T00:40:20.270Z,22.23
2022-12-22T00:41:40.540Z,22.05
2022-12-22T00:43:01.037Z,21.98
2022-12-22T00:44:21.496Z,21.94
2022-12-22T00:45:41.791Z,22.07
2022-12-22T00:47:04.253Z,21.99
2022-12-22T00:48:27.046Z,22.01
2022-12-22T00:49:50.252Z,22.03
2022-12-22T00:51:10.893Z,21.94
2022-12-22T00:52:31.834Z,22.30
2022-12-22T00:53:51.992Z,22.02
2022-12-22T00:55:13.216Z,22.11
2022-12-22T00:56:33.416Z,22.07
2022-12-22T00:57:54.204Z,22.04
2022-12-22T00:59:16.265Z,22.05
2022-12-22T01:00:37.911Z,22.00
2022-12-22T01:01:58.325Z,21.73
2022-12-22T01:03:19.025Z,21.91
2022-12-22T01:04:39.525Z,21.78
2022-12-22T01:06:00.117Z,22.01
2022-12-22T01:07:20.436Z,22.07
2022-12-22T01:08:40.632Z,21.88
2022-12-22T01:10:07.894Z,21.96
2022-12-22T01:11:28.220Z,21.92
2022-12-22T01:12:56.083Z,22.04
2022-12-22T01:14:16.793Z,21.95
2022-12-22T01:15:39.193Z,22.08
2022-12-22T01:16:59.639Z,22.00
2022-12-22T01:18:20.141Z,22.23
2022-12-22T01:19:40.447Z,22.00
2022-12-22T01:21:00.568Z,21.94
2022-12-22T01:22:20.790Z,22.02
2022-12-22T01:23:41.165Z,21.81
2022-12-22T01:25:03.489Z,22.17
2022-12-22T01:26:29.427Z,22.10
2022-12-22T01:27:49.559Z,22.15
2022-12-22T01:29:09.820Z,22.10
2022-12-22T01:30:30.227Z,21.98
2022-12-22T01:31:51.463Z,21.77
2022-12-22T01:33:11.668Z,21.97
2022-12-22T01:34:32.005Z,22.04
2022-12-22T01:35:53.786Z,21.95
2022-12-22T01:37:13.888Z,22.12
2022-12-22T01:38:34.481Z,21.96
2022-12-22T01:39:54.797Z,22.28
2022-12-22T01:41:17.296Z,21.99
2022-12-22T01:42:37.613Z,21.92
2022-12-22T01:43:58.036Z,22.27
2022-12-22T01:45:37.076Z,22.23
2022-12-22T01:47:06.174Z,22.20
2022-12-22T01:48:38.064Z,22.13
2022-12-22T01:50:02.059Z,22.00
2022-12-22T01:51:28.737Z,21.88
2022-12-22T01:52:53.461Z,22.23
2022-12-22T01:54:14.750Z,22.24
2022-12-22T01:55:39.004Z,22.26
2022-12-22T01:57:00.756Z,22.27
2022-12-22T01:58:20.992Z,22.07
2022-12-22T01:59:41.663Z,22.22
2022-12-22T02:01:04.628Z,22.22
2022-12-22T02:02:26.481Z,22.39
2022-12-22T02:03:47.126Z,21.89
2022-12-22T02:05:07.999Z,22.34
2022-12-22T02:06:33.598Z,22.45
2022-12-22T02:08:01.536Z,22.32
2022-12-22T02:09:43.460Z,22.41
2022-12-22T02:11:31.504Z,22.44
2022-12-22T02:13:00.806Z,22.20
2022-12-22T02:14:30.082Z,22.30
2022-12-22T02:16:02.739Z,22.26
2022-12-22T02:18:06.585Z,22.27
2022-12-22T02:19:39.634Z,22.17
2022-12-22T02:21:06.916Z,21.99
2022-12-22T02:22:45.399Z,22.25
2022-12-22T02:24:24.038Z,22.35
2022-12-22T02:25:59.908Z,22.34
2022-12-22T02:27:21.154Z,22.10
2022-12-22T02:28:42.701Z,22.20
2022-12-22T02:30:16.328Z,22.32
2022-12-22T02:31:36.768Z,22.06
2022-12-22T02:33:07.097Z,22.24
2022-12-22T02:34:33.572Z,22.17
2022-12-22T02:36:25.725Z,22.44
2022-12-22T02:38:28.863Z,22.20
2022-12-22T02:40:20.282Z,22.08
2022-12-22T02:42:03.188Z,22.21
2022-12-22T02:44:08.084Z,22.02
2022-12-22T02:45:34.464Z,21.79
2022-12-22T02:47:27.494Z,22.30
2022-12-22T02:49:20.355Z,21.92
2022-12-22T02:51:04.175Z,22.05
2022-12-22T02:52:34.149Z,22.04
2022-12-22T02:53:55.669Z,22.37
2022-12-22T02:55:16.833Z,22.15
2022-12-22T02:56:37.796Z,22.40
2022-12-22T02:57:57.975Z,22.21
2022-12-22T02:59:18.309Z,22.21
2022-12-22T03:00:38.741Z,22.20
2022-12-22T03:02:01.531Z,22.15
2022-12-22T03:03:21.977Z,22.33
2022-12-22T03:04:42.617Z,22.29
2022-12-22T03:06:02.899Z,22.53
2022-12-22T03:07:23.638Z,22.28
2022-12-22T03:08:44.071Z,22.68
2022-12-22T03:10:04.212Z,22.21
2022-12-22T03:11:24.553Z,22.20
2022-12-22T03:12:44.764Z,22.54
2022-12-22T03:14:05.067Z,22.71
2022-12-22T03:15:25.855Z,22.56
2022-12-22T03:16:46.267Z,22.33
2022-12-22T03:18:06.803Z,22.67
2022-12-22T03:19:27.271Z,22.61
2022-12-22T03:20:47.545Z,22.80
2022-12-22T03:22:07.722Z,22.68
2022-12-22T03:23:28.038Z,22.38
2022-12-22T03:24:48.367Z,22.54
2022-12-22T03:25:53.523Z,22.64
2022-12-22T03:26:55.283Z,22.58
2022-12-22T03:28:05.664Z,22.83
2022-12-22T03:29:07.575Z,22.55
2022-12-22T03:30:09.695Z,22.76
2022-12-22T03:31:12.092Z,22.88
2022-12-22T03:32:14.043Z,22.57
2022-12-22T03:33:15.804Z,22.60
2022-12-22T03:34:17.553Z,22.72
2022-12-22T03:35:19.367Z,22.45
2022-12-22T03:36:21.187Z,22.88
2022-12-22T03:37:23.062Z,22.67
2022-12-22T03:38:25.715Z,22.92
2022-12-22T03:39:27.515Z,22.66
2022-12-22T03:40:33.269Z,22.72
2022-12-22T03:41:53.457Z,22.76
2022-12-22T03:43:13.743Z,22.59
2022-12-22T03:44:34.001Z,22.53
2022-12-22T03:46:13.912Z,22.40
2022-12-22T03:47:15.800Z,22.11
2022-12-22T03:48:17.628Z,22.88
2022-12-22T03:49:19.634Z,22.81
2022-12-22T03:50:21.426Z,22.71
2022-12-22T03:51:23.300Z,22.51
2022-12-22T03:52:25.067Z,22.41
2022-12-22T03:53:26.911Z,22.65
2022-12-22T03:54:28.732Z,22.77
2022-12-22T03:55:30.624Z,22.72
2022-12-22T03:56:33.152Z,22.61
2022-12-22T03:57:34.976Z,22.52
2022-12-22T03:58:37.059Z,22.58
2022-12-22T03:59:38.847Z,22.74
2022-12-22T04:00:40.763Z,22.36
2022-12-22T04:01:53.920Z,22.37
2022-12-22T04:02:58.336Z,22.28
2022-12-22T04:04:00.282Z,22.15
2022-12-22T04:05:02.180Z,22.38
2022-12-22T04:06:04.123Z,22.27
2022-12-22T04:07:05.935Z,22.39
2022-12-22T04:08:07.888Z,22.48
2022-12-22T04:09:09.950Z,22.12
2022-12-22T04:10:30.559Z,22.63
2022-12-22T04:11:50.735Z,22.46
2022-12-22T04:12:55.835Z,22.00
2022-12-22T04:13:57.701Z,21.94
2022-12-22T04:14:59.455Z,22.19
2022-12-22T04:16:01.236Z,22.33
2022-12-22T04:17:05.402Z,22.53
2022-12-22T04:18:07.204Z,22.58
2022-12-22T04:19:10.048Z,22.32
2022-12-22T04:20:12.104Z,22.11
2022-12-22T04:21:13.984Z,22.40
2022-12-22T04:22:15.794Z,22.16
2022-12-22T04:23:17.796Z,22.49
2022-12-22T04:24:19.608Z,22.16
2022-12-22T04:25:22.274Z,22.16
2022-12-22T04:26:25.282Z,22.42
2022-12-22T04:27:27.060Z,22.32
2022-12-22T04:28:28.899Z,22.46
2022-12-22T04:29:30.687Z,22.32
2022-12-22T04:30:32.543Z,22.43
2022-12-22T04:31:34.383Z,22.02
2022-12-22T04:32:36.311Z,22.54
2022-12-22T04:33:38.357Z,22.44
2022-12-22T04:34:40.121Z,22.27
2022-12-22T04:35:41.888Z,22.55
2022-12-22T04:36:43.745Z,22.37
2022-12-22T04:37:45.562Z,22.70
2022-12-22T04:38:47.496Z,22.15
2022-12-22T04:39:49.278Z,22.00
2022-12-22T04:40:51.058Z,22.06
2022-12-22T04:41:52.880Z,22.09
2022-12-22T04:42:54.877Z,22.12
2022-12-22T04:43:56.766Z,22.27
2022-12-22T04:44:58.554Z,22.44
2022-12-22T04:46:00.749Z,22.49
2022-12-22T04:47:02.791Z,21.90
2022-12-22T04:48:04.967Z,22.24
2022-12-22T04:49:07.015Z,22.25
2022-12-22T04:50:09.092Z,22.23
2022-12-22T04:51:10.999Z,22.45
2022-12-22T04:52:12.919Z,22.01
2022-12-22T04:53:14.683Z,22.41
2022-12-22T04:54:16.556Z,22.27
2022-12-22T04:55:18.394Z,21.77
2022-12-22T04:56:20.189Z,22.11
2022-12-22T04:57:22.185Z,22.06
2022-12-22T04:58:24.017Z,21.83
2022-12-22T04:59:25.971Z,21.87
2022-12-22T05:00:27.831Z,21.91
2022-12-22T05:01:29.805Z,22.17
2022-12-22T05:02:31.805Z,22.20
2022-12-22T05:03:33.824Z,22.29
2022-12-22T05:04:35.645Z,22.04
2022-12-22T05:05:37.498Z,21.88
2022-12-22T05:06:39.364Z,21.99
2022-12-22T05:07:41.127Z,21.79
2022-12-22T05:08:43.230Z,22.01
2022-12-22T05:09:45.018Z,22.34
2022-12-22T05:10:46.862Z,22.21
2022-12-22T05:11:48.704Z,22.10
2022-12-22T05:12:56.372Z,21.65
2022-12-22T05:14:03.511Z,22.16
2022-12-22T05:15:09.019Z,21.78
2022-12-22T05:16:14.216Z,22.26
2022-12-22T05:17:16.094Z,21.82
2022-12-22T05:18:17.870Z,21.56
2022-12-22T05:19:19.751Z,21.65
2022-12-22T05:20:22.062Z,21.59
2022-12-22T05:21:23.876Z,21.87
2022-12-22T05:22:25.755Z,21.58
2022-12-22T05:23:27.576Z,21.73
2022-12-22T05:24:29.324Z,21.64
2022-12-22T05:25:35.132Z,21.97
2022-12-22T05:26:37.495Z,21.92
2022-12-22T05:27:39.347Z,22.06
2022-12-22T05:28:42.357Z,21.99
2022-12-22T05:29:44.198Z,22.04
2022-12-22T05:30:46.025Z,21.88
2022-12-22T05:31:47.852Z,21.66
2022-12-22T05:32:49.700Z,21.44
2022-12-22T05:33:51.536Z,21.68
2022-12-22T05:34:53.316Z,21.85
2022-12-22T05:35:55.092Z,21.48
2022-12-22T05:36:56.949Z,21.54
2022-12-22T05:37:58.827Z,21.83
2022-12-22T05:39:00.671Z,21.53
2022-12-22T05:40:02.613Z,21.77
2022-12-22T05:41:04.993Z,21.70
2022-12-22T05:42:06.911Z,21.53
2022-12-22T05:43:10.256Z,21.71
2022-12-22T05:44:12.056Z,21.84
2022-12-22T05:45:15.633Z,21.80
2022-12-22T05:46:17.632Z,21.69
2022-12-22T05:47:19.505Z,21.82
2022-12-22T05:48:28.322Z,21.69
2022-12-22T05:49:32.789Z,21.83
2022-12-22T05:50:34.707Z,21.58
2022-12-22T05:51:39.271Z,21.58
2022-12-22T05:52:41.653Z,21.99
2022-12-22T05:53:43.587Z,21.83
2022-12-22T05:54:45.336Z,21.88
2022-12-22T05:55:47.938Z,21.97
2022-12-22T05:56:49.754Z,21.71
2022-12-22T05:57:51.528Z,21.77
2022-12-22T05:58:53.335Z,21.92
2022-12-22T05:59:55.179Z,21.67
2022-12-22T06:00:58.689Z,21.66
2022-12-22T06:02:00.628Z,21.62
2022-12-22T06:03:02.579Z,21.83
2022-12-22T06:04:04.840Z,21.75
2022-12-22T06:05:07.328Z,21.78
2022-12-22T06:06:09.220Z,21.56
2022-12-22T06:07:11.069Z,21.66
2022-12-22T06:08:12.972Z,21.72
2022-12-22T06:09:14.842Z,21.62
2022-12-22T06:10:17.016Z,21.48
2022-12-22T06:11:19.389Z,21.24
2022-12-22T06:12:21.201Z,21.45
2022-12-22T06:13:24.027Z,21.31
2022-12-22T06:14:25.869Z,21.58
2022-12-22T06:15:27.639Z,21.21
2022-12-22T06:16:29.784Z,21.65
2022-12-22T06:17:31.860Z,21.31
2022-12-22T06:18:33.637Z,21.37
2022-12-22T06:19:35.468Z,21.29
2022-12-22T06:20:37.244Z,21.45
2022-12-22T06:21:39.113Z,21.47
2022-12-22T06:22:40.924Z,21.09
2022-12-22T06:23:42.904Z,21.20
2022-12-22T06:24:44.776Z,20.90
2022-12-22T06:26:01.712Z,21.05
2022-12-22T06:27:03.649Z,20.83
2022-12-22T06:28:05.562Z,20.95
2022-12-22T06:29:07.428Z,20.97
2022-12-22T06:30:09.811Z,21.09
2022-12-22T06:31:11.668Z,20.85
2022-12-22T06:32:13.455Z,20.86
2022-12-22T06:33:15.769Z,20.59
2022-12-22T06:34:18.148Z,20.55
2022-12-22T06:35:19.984Z,20.85
2022-12-22T06:36:21.893Z,20.86
2022-12-22T06:37:23.661Z,20.70
2022-12-22T06:38:26.079Z,20.88
2022-12-22T06:39:27.985Z,20.96
2022-12-22T06:40:29.773Z,20.68
2022-12-22T06:41:50.095Z,20.47
2022-12-22T06:43:10.680Z,20.28
2022-12-22T06:44:12.821Z,20.53
2022-12-22T06:45:14.635Z,20.44
2022-12-22T06:46:16.420Z,20.38
2022-12-22T06:47:18.329Z,19.96
2022-12-22T06:48:20.715Z,20.36
2022-12-22T06:49:22.833Z,20.43
2022-12-22T06:50:24.766Z,20.44
2022-12-22T06:51:26.540Z,20.22
2022-12-22T06:52:28.411Z,20.40
2022-12-22T06:53:30.220Z,20.45
2022-12-22T06:54:31.979Z,20.20
2022-12-22T06:55:33.896Z,20.31
2022-12-22T06:56:35.664Z,20.00
2022-12-22T06:57:37.492Z,20.33
2022-12-22T06:58:39.293Z,20.11
2022-12-22T06:59:41.076Z,19.82
2022-12-22T07:00:43.766Z,20.10
2022-12-22T07:01:45.755Z,20.24
2022-12-22T07:02:47.918Z,20.02
2022-12-22T07:03:49.846Z,20.33
2022-12-22T07:04:51.723Z,20.40
2022-12-22T07:05:53.656Z,20.02
2022-12-22T07:06:55.492Z,19.92
2022-12-22T07:08:01.170Z,19.86
2022-12-22T07:09:07.830Z,20.04
2022-12-22T07:10:10.331Z,20.04
2022-12-22T07:11:12.308Z,20.30
2022-12-22T07:12:14.100Z,20.11
2022-12-22T07:13:21.743Z,19.96
2022-12-22T07:14:23.645Z,20.06
2022-12-22T07:15:25.424Z,20.06
2022-12-22T07:16:27.398Z,19.99
2022-12-22T07:17:29.253Z,19.88
2022-12-22T07:18:33.223Z,19.85
2022-12-22T07:19:35.587Z,19.98
2022-12-22T07:20:37.393Z,20.04
2022-12-22T07:21:39.518Z,20.18
2022-12-22T07:22:41.309Z,20.15
2022-12-22T07:23:43.210Z,20.05
2022-12-22T07:24:45.052Z,19.98
2022-12-22T07:25:46.884Z,20.00
2022-12-22T07:26:49.236Z,19.92
2022-12-22T07:27:51.021Z,20.22
2022-12-22T07:28:52.865Z,20.02
2022-12-22T07:29:54.691Z,19.92
2022-12-22T07:30:56.485Z,20.06
2022-12-22T07:31:58.382Z,20.09
2022-12-22T07:33:00.148Z,20.03
2022-12-22T07:34:01.974Z,20.46
2022-12-22T07:35:05.891Z,20.21
2022-12-22T07:36:14.044Z,20.04
2022-12-22T07:37:15.802Z,20.18
2022-12-22T07:38:17.567Z,20.04
2022-12-22T07:39:19.322Z,20.16
2022-12-22T07:40:21.712Z,20.12
2022-12-22T07:41:42.327Z,20.15
2022-12-22T07:42:46.911Z,19.85
2022-12-22T07:43:48.725Z,20.01
2022-12-22T07:44:50.543Z,19.94
2022-12-22T07:45:52.335Z,20.04
2022-12-22T07:46:54.238Z,19.93
2022-12-22T07:48:23.051Z,19.97
2022-12-22T07:49:43.644Z,20.16
2022-12-22T07:50:45.437Z,20.30
2022-12-22T07:51:47.392Z,20.18
2022-12-22T07:52:49.252Z,19.98
2022-12-22T07:53:50.992Z,20.04
2022-12-22T07:54:52.758Z,20.10
2022-12-22T07:55:54.550Z,20.11
2022-12-22T07:56:56.823Z,19.92
2022-12-22T07:57:58.973Z,20.24
2022-12-22T07:59:00.939Z,20.08
2022-12-22T08:00:03.343Z,20.04
2022-12-22T08:01:13.859Z,20.28
2022-12-22T08:02:16.249Z,20.09
2022-12-22T08:03:18.252Z,19.99
2022-12-22T08:04:20.332Z,20.00
2022-12-22T08:05:24.395Z,20.27
2022-12-22T08:06:26.663Z,20.34
2022-12-22T08:07:28.548Z,20.31
2022-12-22T08:08:30.411Z,20.30
2022-12-22T08:09:32.190Z,20.28
2022-12-22T08:10:33.986Z,20.25
2022-12-22T08:11:36.216Z,20.28
2022-12-22T08:12:38.652Z,20.08
2022-12-22T08:13:40.529Z,20.26
2022-12-22T08:14:45.901Z,20.01
2022-12-22T08:15:47.798Z,20.20
2022-12-22T08:16:49.794Z,20.29
2022-12-22T08:17:51.871Z,20.15
2022-12-22T08:18:53.723Z,20.24
2022-12-22T08:19:56.412Z,20.26
2022-12-22T08:20:58.195Z,20.08
2022-12-22T08:22:01.281Z,20.26
2022-12-22T08:23:03.131Z,20.17
2022-12-22T08:24:05.358Z,20.15
2022-12-22T08:25:07.473Z,20.20
2022-12-22T08:26:24.237Z,20.41
2022-12-22T08:27:39.864Z,20.12
2022-12-22T08:28:48.302Z,19.90
2022-12-22T08:29:53.622Z,19.95
2022-12-22T08:30:55.425Z,19.92
2022-12-22T08:31:57.395Z,20.07
2022-12-22T08:32:59.267Z,20.05
2022-12-22T08:34:04.535Z,19.91
2022-12-22T08:35:08.243Z,19.87
2022-12-22T08:36:10.819Z,19.99
2022-12-22T08:37:16.743Z,20.16
2022-12-22T08:38:18.579Z,20.01
2022-12-22T08:39:22.140Z,20.09
2022-12-22T08:40:28.765Z,19.82
2022-12-22T08:41:49.351Z,19.77
2022-12-22T08:42:56.952Z,19.94
2022-12-22T08:43:58.745Z,19.98
2022-12-22T08:45:00.556Z,19.95
2022-12-22T08:46:02.401Z,19.80
2022-12-22T08:47:04.300Z,20.01
2022-12-22T08:48:06.497Z,20.01
2022-12-22T08:49:08.329Z,19.70
2022-12-22T08:50:10.335Z,19.68
2022-12-22T08:51:12.161Z,19.95
2022-12-22T08:52:18.458Z,19.95
2022-12-22T08:53:54.097Z,19.65
2022-12-22T08:54:42.854Z,19.68
2022-12-22T08:55:55.087Z,19.88
2022-12-22T08:56:58.703Z,19.90
2022-12-22T08:58:00.501Z,19.39
2022-12-22T08:59:05.349Z,20.01
2022-12-22T09:00:09.426Z,19.69
2022-12-22T09:01:22.653Z,19.68
2022-12-22T09:02:24.670Z,19.25
2022-12-22T09:03:26.712Z,19.64
2022-12-22T09:04:28.531Z,19.58
2022-12-22T09:05:30.348Z,19.54
2022-12-22T09:06:40.153Z,19.85
2022-12-22T09:07:42.809Z,19.56
2022-12-22T09:08:44.617Z,19.86
2022-12-22T09:09:46.797Z,19.63
2022-12-22T09:10:48.614Z,19.51
2022-12-22T09:11:50.608Z,19.67
2022-12-22T09:12:52.633Z,19.53
2022-12-22T09:13:56.269Z,19.53
2022-12-22T09:14:58.623Z,19.55
2022-12-22T09:16:04.325Z,19.68
2022-12-22T09:17:06.234Z,19.46
2022-12-22T09:18:08.028Z,19.55
2022-12-22T09:19:10.354Z,19.48
2022-12-22T09:20:12.520Z,19.42
2022-12-22T09:21:14.589Z,19.76
2022-12-22T09:22:20.342Z,19.60
2022-12-22T09:23:25.719Z,19.49
2022-12-22T09:24:27.527Z,19.42
2022-12-22T09:25:29.399Z,19.73
2022-12-22T09:26:32.305Z,19.71
2022-12-22T09:27:34.154Z,19.78
2022-12-22T09:28:36.739Z,19.60
2022-12-22T09:29:38.615Z,19.68
2022-12-22T09:30:40.496Z,19.58
2022-12-22T09:31:42.676Z,19.72
2022-12-22T09:32:44.519Z,19.69
2022-12-22T09:33:46.727Z,19.83
2022-12-22T09:34:48.944Z,19.42
2022-12-22T09:35:50.722Z,19.57
2022-12-22T09:36:52.505Z,19.68
2022-12-22T09:37:54.251Z,19.41
2022-12-22T09:38:56.334Z,19.55
2022-12-22T09:39:58.086Z,19.56
2022-12-22T09:41:00.117Z,19.82
2022-12-22T09:42:02.167Z,19.48
2022-12-22T09:43:04.521Z,19.58
2022-12-22T09:44:14.852Z,19.37
2022-12-22T09:45:21.465Z,19.12
2022-12-22T09:46:26.516Z,19.44
2022-12-22T09:47:39.696Z,19.37
2022-12-22T09:48:41.479Z,19.72
2022-12-22T09:49:43.284Z,19.53
2022-12-22T09:50:45.055Z,19.64
2022-12-22T09:51:52.364Z,19.98
2022-12-22T09:52:59.113Z,19.37
2022-12-22T09:54:01.934Z,19.61
2022-12-22T09:55:13.126Z,19.94
2022-12-22T09:56:17.468Z,20.19
2022-12-22T09:57:19.518Z,19.84
2022-12-22T09:58:30.968Z,19.68
2022-12-22T09:59:32.875Z,19.58
2022-12-22T10:00:36.647Z,19.63
2022-12-22T10:02:06.249Z,19.87
2022-12-22T10:03:25.811Z,19.77
2022-12-22T10:05:05.879Z,19.58
2022-12-22T10:06:29.777Z,19.72
2022-12-22T10:07:34.701Z,19.48
2022-12-22T10:08:38.345Z,19.81
2022-12-22T10:09:55.480Z,19.75
2022-12-22T10:10:57.771Z,19.54
2022-12-22T10:12:02.334Z,19.56
2022-12-22T10:13:05.958Z,19.40
2022-12-22T10:14:11.005Z,19.74
2022-12-22T10:15:18.357Z,19.77
2022-12-22T10:16:27.902Z,19.60
2022-12-22T10:17:32.604Z,19.78
2022-12-22T10:18:35.576Z,19.53
2022-12-22T10:19:37.371Z,19.85
2022-12-22T10:20:40.292Z,19.69
2022-12-22T10:21:47.099Z,19.92
2022-12-22T10:22:52.655Z,19.72
2022-12-22T10:23:54.655Z,20.07
2022-12-22T10:24:57.263Z,20.00
2022-12-22T10:26:29.064Z,19.96
2022-12-22T10:27:37.349Z,19.59
2022-12-22T10:28:49.448Z,19.63
2022-12-22T10:29:51.569Z,19.60
2022-12-22T10:31:16.807Z,19.87
2022-12-22T10:32:21.357Z,19.65
2022-12-22T10:33:23.231Z,19.57
2022-12-22T10:34:25.179Z,19.58
2022-12-22T10:35:27.086Z,20.04
2022-12-22T10:36:32.227Z,19.65
2022-12-22T10:37:39.878Z,19.89
2022-12-22T10:39:00.781Z,20.02
2022-12-22T10:40:18.525Z,19.79
2022-12-22T10:41:22.683Z,19.85
2022-12-22T10:42:24.586Z,19.70
2022-12-22T10:43:29.860Z,19.94
2022-12-22T10:44:37.156Z,19.72
2022-12-22T10:45:48.044Z,19.95
2022-12-22T10:46:52.117Z,19.86
2022-12-22T10:47:57.418Z,19.83
2022-12-22T10:49:26.565Z,19.85
2022-12-22T10:50:28.596Z,19.84
2022-12-22T10:51:30.516Z,19.59
2022-12-22T10:52:33.240Z,19.75
2022-12-22T10:53:56.172Z,19.66
2022-12-22T10:55:25.870Z,19.76
2022-12-22T10:56:30.411Z,19.76
2022-12-22T10:57:32.311Z,19.90
2022-12-22T10:58:49.437Z,19.87
2022-12-22T11:00:02.896Z,19.91
2022-12-22T11:01:05.619Z,19.83
2022-12-22T11:02:27.175Z,19.81
2022-12-22T11:03:31.314Z,19.77
2022-12-22T11:04:33.189Z,19.56
2022-12-22T11:05:35.036Z,20.16
2022-12-22T11:06:44.401Z,19.68
2022-12-22T11:07:50.277Z,19.61
2022-12-22T11:08:52.343Z,19.89
2022-12-22T11:09:54.316Z,19.66
2022-12-22T11:11:04.134Z,19.64
2022-12-22T11:12:43.298Z,19.84
2022-12-22T11:14:08.018Z,19.90
2022-12-22T11:15:48.843Z,19.71
2022-12-22T11:16:58.327Z,19.78
2022-12-22T11:18:13.834Z,19.87
2022-12-22T11:19:34.487Z,19.52
2022-12-22T11:21:07.496Z,19.64
2022-12-22T11:22:18.957Z,19.91
2022-12-22T11:23:29.875Z,19.50
2022-12-22T11:24:47.018Z,19.62
2022-12-22T11:26:22.600Z,19.63
2022-12-22T11:28:41.121Z,19.55
2022-12-22T11:29:45.874Z,19.44
2022-12-22T11:31:15.237Z,19.81
2022-12-22T11:32:43.483Z,19.81
2022-12-22T11:34:20.775Z,19.58
2022-12-22T11:35:41.603Z,19.74
2022-12-22T11:36:49.613Z,20.07
2022-12-22T11:38:06.645Z,19.83
2022-12-22T11:39:14.601Z,20.14
2022-12-22T11:40:32.046Z,19.69
2022-12-22T11:41:59.583Z,19.78
2022-12-22T11:43:25.635Z,19.94
2022-12-22T11:44:44.030Z,19.58
2022-12-22T11:46:02.207Z,19.69
2022-12-22T11:47:12.066Z,19.80
2022-12-22T11:48:22.472Z,19.96
2022-12-22T11:49:33.325Z,19.95
2022-12-22T11:50:59.426Z,19.98
2022-12-22T11:52:04.716Z,19.65
2022-12-22T11:53:24.442Z,20.05
2022-12-22T11:54:38.112Z,19.65
2022-12-22T11:55:45.232Z,19.52
2022-12-22T11:57:39.273Z,19.88
2022-12-22T11:59:05.401Z,20.02
2022-12-22T12:00:14.451Z,19.76
2022-12-22T12:01:42.755Z,19.90
2022-12-22T12:03:11.023Z,19.58
2022-12-22T12:04:21.028Z,19.77
2022-12-22T12:05:49.730Z,19.87
2022-12-22T12:06:57.551Z,19.86
2022-12-22T12:08:08.024Z,20.06
2022-12-22T12:09:36.156Z,19.83
2022-12-22T12:11:02.063Z,20.15
2022-12-22T12:12:21.024Z,19.92
2022-12-22T12:13:49.479Z,19.91
2022-12-22T12:15:16.107Z,19.90
2022-12-22T12:16:20.107Z,19.80
2022-12-22T12:17:25.111Z,19.73
2022-12-22T12:18:45.287Z,20.05
2022-12-22T12:20:18.673Z,20.09
2022-12-22T12:21:30.473Z,20.06
2022-12-22T12:23:00.115Z,20.11
2022-12-22T12:24:13.770Z,19.91
2022-12-22T12:25:44.512Z,19.90
2022-12-22T12:27:42.967Z,20.10
2022-12-22T12:29:14.068Z,19.89
2022-12-22T12:31:51.942Z,19.92
2022-12-22T12:33:01.304Z,20.10
2022-12-22T12:34:03.796Z,20.13
2022-12-22T12:35:22.038Z,20.23
2022-12-22T12:36:27.736Z,19.96
2022-12-22T12:37:33.646Z,20.12
2022-12-22T12:40:35.020Z,20.10
2022-12-22T12:41:53.819Z,20.05
2022-12-22T12:42:58.247Z,19.91
2022-12-22T12:44:01.374Z,19.90
2022-12-22T12:45:05.337Z,20.35
2022-12-22T12:46:46.093Z,20.02
2022-12-22T12:47:47.884Z,19.94
2022-12-22T12:48:50.064Z,20.01
2022-12-22T12:49:51.836Z,19.78
2022-12-22T12:50:57.891Z,19.83
2022-12-22T12:52:09.624Z,20.16
2022-12-22T12:53:11.691Z,20.20
2022-12-22T12:54:43.484Z,19.91
2022-12-22T12:55:48.251Z,20.18
2022-12-22T12:57:11.286Z,19.98
2022-12-22T12:58:35.823Z,20.01
2022-12-22T12:59:40.576Z,20.24
2022-12-22T13:00:49.805Z,20.05
2022-12-22T13:01:57.639Z,19.84
2022-12-22T13:03:00.428Z,20.06
2022-12-22T13:04:04.663Z,19.80
2022-12-22T13:05:12.819Z,19.89
2022-12-22T13:06:53.559Z,19.81
2022-12-22T13:08:26.946Z,19.86
2022-12-22T13:11:10.386Z,19.68
2022-12-22T13:12:54.104Z,19.77
2022-12-22T13:13:57.925Z,19.99
2022-12-22T13:15:01.797Z,20.24
2022-12-22T13:16:04.292Z,20.10
2022-12-22T13:17:44.350Z,20.13
2022-12-22T13:18:51.062Z,19.83
2022-12-22T13:19:54.064Z,19.88
2022-12-22T13:21:42.434Z,20.24
2022-12-22T13:22:29.865Z,19.62
2022-12-22T13:24:14.474Z,20.00
2022-12-22T13:25:04.964Z,19.76
2022-12-22T13:26:10.360Z,19.97
2022-12-22T13:27:12.478Z,20.10
2022-12-22T13:28:19.469Z,19.74
2022-12-22T13:29:40.944Z,19.95
2022-12-22T13:30:53.215Z,19.67
2022-12-22T13:32:00.503Z,19.86
2022-12-22T13:33:02.801Z,20.01
2022-12-22T13:35:28.470Z,19.78
2022-12-22T13:36:27.059Z,19.65
2022-12-22T13:37:29.617Z,19.61
2022-12-22T13:38:37.166Z,19.82
2022-12-22T13:39:38.988Z,19.77
2022-12-22T13:40:43.443Z,19.68
2022-12-22T13:41:48.462Z,19.78
2022-12-22T13:42:56.972Z,20.12
2022-12-22T13:44:06.120Z,19.87
2022-12-22T13:45:28.464Z,19.59
2022-12-22T13:46:33.169Z,19.88
2022-12-22T13:47:35.094Z,19.64
2022-12-22T13:48:44.650Z,19.58
2022-12-22T13:50:08.402Z,19.64
2022-12-22T13:51:25.817Z,19.41
2022-12-22T13:52:27.736Z,19.85
2022-12-22T13:54:11.256Z,19.70
2022-12-22T13:54:56.835Z,19.73
2022-12-22T13:55:58.992Z,19.56
2022-12-22T13:57:03.468Z,19.69
2022-12-22T13:58:23.082Z,19.98
2022-12-22T13:59:33.455Z,19.68
2022-12-22T14:00:35.810Z,19.68
2022-12-22T14:01:52.026Z,20.03
2022-12-22T14:02:54.070Z,19.76
2022-12-22T14:04:03.948Z,19.86
2022-12-22T14:05:10.190Z,19.79
2022-12-22T14:06:31.801Z,19.89
2022-12-22T14:07:33.685Z,19.73
2022-12-22T14:08:35.541Z,19.81
2022-12-22T14:09:37.388Z,19.73
2022-12-22T14:10:44.129Z,19.99
2022-12-22T14:12:13.229Z,19.84
2022-12-22T14:13:18.177Z,19.62
2022-12-22T14:14:24.997Z,19.76
2022-12-22T14:15:26.809Z,19.85
2022-12-22T14:16:28.672Z,19.86
2022-12-22T14:17:30.468Z,19.95
2022-12-22T14:18:33.611Z,19.85
2022-12-22T14:19:38.442Z,19.77
2022-12-22T14:20:40.669Z,19.93
2022-12-22T14:21:44.903Z,20.01
2022-12-22T14:22:54.754Z,20.00
2022-12-22T14:23:56.809Z,19.90
2022-12-22T14:25:03.481Z,19.65
2022-12-22T14:26:06.728Z,20.09
2022-12-22T14:27:24.349Z,19.73
2022-12-22T14:28:31.073Z,19.56
2022-12-22T14:29:33.053Z,19.65
2022-12-22T14:30:39.327Z,19.80
2022-12-22T14:32:04.518Z,19.55
2022-12-22T14:33:30.233Z,19.86
2022-12-22T14:34:34.284Z,20.04
2022-12-22T14:35:36.063Z,19.86
2022-12-22T14:36:41.333Z,19.56
2022-12-22T14:37:43.106Z,20.03
2022-12-22T14:38:47.888Z,20.06
2022-12-22T14:39:55.501Z,19.91
2022-12-22T14:40:58.124Z,19.91
2022-12-22T14:42:13.448Z,19.80
2022-12-22T14:43:18.234Z,20.12
2022-12-22T14:44:33.649Z,20.22
2022-12-22T14:45:35.743Z,19.90
2022-12-22T14:46:39.313Z,20.13
2022-12-22T14:47:41.321Z,19.79
2022-12-22T14:48:47.564Z,19.96
2022-12-22T14:49:55.915Z,19.94
2022-12-22T14:50:58.052Z,19.67
2022-12-22T14:52:19.871Z,19.80
2022-12-22T14:53:31.839Z,19.71
2022-12-22T14:54:34.265Z,19.79
2022-12-22T14:55:48.936Z,19.96
2022-12-22T14:56:52.899Z,19.71
2022-12-22T14:58:05.830Z,19.68
2022-12-22T14:59:22.389Z,19.87
2022-12-22T15:00:24.318Z,19.60
2022-12-22T15:01:28.608Z,20.05
2022-12-22T15:02:39.684Z,19.98
2022-12-22T15:03:42.362Z,20.05
2022-12-22T15:04:44.481Z,20.04
2022-12-22T15:05:46.320Z,19.96
2022-12-22T15:06:49.010Z,20.10
2022-12-22T15:08:09.942Z,20.21
2022-12-22T15:10:14.631Z,19.63
2022-12-22T15:10:54.133Z,19.84
2022-12-22T15:12:14.425Z,20.04
2022-12-22T15:13:23.972Z,20.11